createdAt,value
2018-06-10T00:00:52.871Z,22.03
2018-06-10T00:03:21.442Z,21.77
2018-06-10T00:05:50.097Z,21.87
2018-06-10T00:08:19.214Z,23.33
2018-06-10T00:10:48.516Z,22.27
2018-06-10T00:13:17.366Z,23.63
2018-06-10T00:15:46.352Z,22.83
2018-06-10T00:18:14.953Z,24.03
2018-06-10T00:20:43.800Z,23.73
2018-06-10T00:23:12.936Z,23.43
2018-06-10T00:25:42.382Z,23.17
2018-06-10T00:28:11.484Z,23.17
2018-06-10T00:30:40.332Z,22.20
2018-06-10T00:33:09.540Z,22.37
2018-06-10T00:35:38.211Z,22.10
2018-06-10T00:38:07.057Z,21.53
2018-06-10T00:40:36.273Z,21.43
2018-06-10T00:43:05.989Z,22.30
2018-06-10T00:45:35.082Z,20.07
2018-06-10T00:48:03.923Z,19.40
2018-06-10T00:50:33.164Z,20.70
2018-06-10T00:53:02.641Z,19.60
2018-06-10T00:55:31.554Z,19.67
2018-06-10T00:58:00.650Z,20.20
2018-06-10T01:00:29.945Z,20.10
2018-06-10T01:02:58.520Z,20.37
2018-06-10T01:05:28.049Z,20.80
2018-06-10T01:07:57.041Z,21.23
2018-06-10T01:10:26.336Z,20.70
2018-06-10T01:12:55.153Z,19.90
2018-06-10T01:15:24.254Z,20.00
2018-06-10T01:17:53.195Z,19.67
2018-06-10T01:20:23.591Z,19.97
2018-06-10T01:22:52.409Z,19.73
2018-06-10T01:25:21.250Z,19.70
2018-06-10T01:27:50.138Z,17.57
2018-06-10T01:30:19.012Z,18.53
2018-06-10T01:32:48.065Z,19.17
2018-06-10T01:35:17.175Z,17.83
2018-06-10T01:37:46.041Z,17.53
2018-06-10T01:40:14.658Z,17.27
2018-06-10T01:42:43.510Z,18.23
2018-06-10T01:45:12.775Z,19.17
2018-06-10T01:47:41.481Z,18.33
2018-06-10T01:50:10.679Z,18.50
2018-06-10T01:52:39.593Z,18.03
2018-06-10T01:55:15.069Z,18.83
2018-06-10T01:57:44.597Z,18.10
2018-06-10T02:00:13.481Z,20.03
2018-06-10T02:02:42.349Z,18.00
2018-06-10T02:05:11.192Z,20.47
2018-06-10T02:07:40.071Z,20.20
2018-06-10T02:10:08.918Z,20.70
2018-06-10T02:12:37.771Z,21.10
2018-06-10T02:15:06.630Z,21.00
2018-06-10T02:17:35.460Z,19.90
2018-06-10T02:20:04.434Z,20.30
2018-06-10T02:22:33.927Z,20.80
2018-06-10T02:25:02.779Z,22.63
2018-06-10T02:27:32.255Z,22.10
2018-06-10T02:30:01.250Z,21.63
2018-06-10T02:32:30.133Z,24.20
2018-06-10T02:34:59.011Z,24.87
2018-06-10T02:37:28.012Z,24.37
2018-06-10T02:39:56.853Z,26.10
2018-06-10T02:42:25.681Z,28.73
2018-06-10T02:44:54.631Z,27.03
2018-06-10T02:47:23.557Z,28.30
2018-06-10T02:49:52.671Z,27.63
2018-06-10T02:52:21.510Z,28.60
2018-06-10T02:54:50.464Z,30.00
2018-06-10T02:57:19.398Z,30.87
2018-06-10T02:59:48.308Z,32.00
2018-06-10T03:02:17.198Z,31.23
2018-06-10T03:04:46.089Z,31.53
2018-06-10T03:07:14.652Z,28.23
2018-06-10T03:09:43.603Z,28.90
2018-06-10T03:12:12.529Z,28.03
2018-06-10T03:14:41.379Z,26.63
2018-06-10T03:17:09.990Z,27.03
2018-06-10T03:19:38.849Z,28.30
2018-06-10T03:22:07.769Z,24.50
2018-06-10T03:24:36.693Z,25.90
2018-06-10T03:27:05.572Z,26.63
2018-06-10T03:29:34.442Z,24.50
2018-06-10T03:32:03.317Z,24.83
2018-06-10T03:34:32.384Z,24.43
2018-06-10T03:37:01.216Z,25.70
2018-06-10T03:39:30.064Z,24.33
2018-06-10T03:41:58.925Z,24.83
2018-06-10T03:44:27.970Z,24.27
2018-06-10T03:46:56.789Z,25.30
2018-06-10T03:49:25.660Z,23.20
2018-06-10T03:51:54.521Z,25.17
2018-06-10T03:54:23.429Z,24.70
2018-06-10T03:56:52.343Z,23.73
2018-06-10T03:59:21.202Z,24.17
2018-06-10T04:01:50.033Z,24.00
2018-06-10T04:04:18.957Z,24.43
2018-06-10T04:06:47.823Z,24.83
2018-06-10T04:09:16.883Z,23.73
2018-06-10T04:11:45.751Z,23.33
2018-06-10T04:14:14.681Z,22.87
2018-06-10T04:16:44.366Z,23.33
2018-06-10T04:19:13.290Z,23.07
2018-06-10T04:21:45.148Z,23.30
2018-06-10T04:24:14.074Z,24.00
2018-06-10T04:26:42.696Z,23.23
2018-06-10T04:29:11.517Z,22.77
2018-06-10T04:31:40.509Z,21.97
2018-06-10T04:34:09.856Z,21.93
2018-06-10T04:36:38.836Z,22.83
2018-06-10T04:39:07.785Z,20.40
2018-06-10T04:41:36.684Z,21.23
2018-06-10T04:44:06.257Z,20.10
2018-06-10T04:46:35.112Z,18.90
2018-06-10T04:49:03.982Z,19.03
2018-06-10T04:51:33.176Z,18.00
2018-06-10T04:54:02.166Z,18.77
2018-06-10T04:56:31.234Z,18.20
2018-06-10T04:59:00.181Z,19.83
2018-06-10T05:01:29.094Z,20.07
2018-06-10T05:03:58.634Z,20.93
2018-06-10T05:06:27.497Z,22.37
2018-06-10T05:08:56.448Z,22.70
2018-06-10T05:11:25.268Z,24.27
2018-06-10T05:13:54.770Z,24.67
2018-06-10T05:16:23.763Z,24.47
2018-06-10T05:18:52.653Z,24.63
2018-06-10T05:21:21.602Z,25.27
2018-06-10T05:23:50.477Z,25.77
2018-06-10T05:26:19.386Z,25.20
2018-06-10T05:28:48.288Z,25.97
2018-06-10T05:31:17.106Z,25.63
2018-06-10T05:33:45.757Z,24.97
2018-06-10T05:36:14.733Z,25.17
2018-06-10T05:38:43.618Z,25.67
2018-06-10T05:41:12.469Z,26.17
2018-06-10T05:43:41.328Z,25.57
2018-06-10T05:46:10.193Z,24.60
2018-06-10T05:48:39.058Z,24.00
2018-06-10T05:51:08.010Z,24.23
2018-06-10T05:53:36.853Z,25.10
2018-06-10T05:56:05.830Z,24.70
2018-06-10T05:58:34.648Z,23.27
2018-06-10T06:01:03.518Z,22.97
2018-06-10T06:03:32.364Z,21.60
2018-06-10T06:06:02.011Z,23.40
2018-06-10T06:08:30.815Z,21.90
2018-06-10T06:11:00.426Z,22.00
2018-06-10T06:13:29.284Z,22.07
2018-06-10T06:15:58.295Z,22.63
2018-06-10T06:18:26.893Z,23.33
2018-06-10T06:20:55.766Z,21.33
2018-06-10T06:23:24.648Z,20.93
2018-06-10T06:25:53.304Z,19.33
2018-06-10T06:28:22.153Z,18.77
2018-06-10T06:30:51.019Z,18.60
2018-06-10T06:33:20.020Z,18.67
2018-06-10T06:35:49.749Z,18.57
2018-06-10T06:38:18.646Z,17.80
2018-06-10T06:40:47.520Z,17.17
2018-06-10T06:43:16.561Z,16.70
2018-06-10T06:45:45.439Z,15.10
2018-06-10T06:48:14.295Z,15.17
2018-06-10T06:50:43.167Z,15.33
2018-06-10T06:53:12.065Z,14.83
2018-06-10T06:55:40.596Z,14.93
2018-06-10T06:58:09.522Z,14.67
2018-06-10T07:00:38.525Z,14.17
2018-06-10T07:03:08.102Z,14.47
2018-06-10T07:05:36.987Z,13.73
2018-06-10T07:08:06.056Z,13.23
2018-06-10T07:10:34.933Z,13.60
2018-06-10T07:13:03.709Z,12.30
2018-06-10T07:15:32.336Z,14.03
2018-06-10T07:18:01.407Z,12.30
2018-06-10T07:20:30.375Z,12.37
2018-06-10T07:22:59.305Z,13.60
2018-06-10T07:25:28.331Z,12.67
2018-06-10T07:27:57.205Z,12.90
2018-06-10T07:30:26.163Z,12.40
2018-06-10T07:32:55.293Z,12.37
2018-06-10T07:35:24.326Z,14.43
2018-06-10T07:37:54.075Z,12.73
2018-06-10T07:40:23.014Z,13.00
2018-06-10T07:42:51.917Z,12.40
2018-06-10T07:45:20.836Z,12.67
2018-06-10T07:47:49.821Z,12.73
2018-06-10T07:50:18.691Z,12.27
2018-06-10T07:52:47.581Z,12.73
2018-06-10T07:55:16.444Z,13.33
2018-06-10T07:57:45.304Z,11.97
2018-06-10T08:00:14.254Z,11.00
2018-06-10T08:02:43.443Z,11.57
2018-06-10T08:05:12.592Z,12.63
2018-06-10T08:07:41.813Z,12.70
2018-06-10T08:10:10.711Z,12.43
2018-06-10T08:12:39.621Z,12.10
2018-06-10T08:15:08.992Z,12.33
2018-06-10T08:17:37.939Z,11.80
2018-06-10T08:20:06.801Z,12.43
2018-06-10T08:22:35.688Z,11.57
2018-06-10T08:25:04.744Z,10.13
2018-06-10T08:27:33.985Z,10.10
2018-06-10T08:30:02.945Z,9.70
2018-06-10T08:32:31.834Z,9.10
2018-06-10T08:35:00.742Z,10.70
2018-06-10T08:37:29.770Z,8.50
2018-06-10T08:39:58.667Z,8.63
2018-06-10T08:42:27.581Z,8.53
2018-06-10T08:44:56.552Z,9.17
2018-06-10T08:47:25.445Z,8.20
2018-06-10T08:49:54.359Z,8.20
2018-06-10T08:52:23.260Z,7.90
2018-06-10T08:54:52.200Z,7.47
2018-06-10T08:57:21.094Z,7.87
2018-06-10T08:59:50.009Z,7.80
2018-06-10T09:02:18.916Z,7.53
2018-06-10T09:04:47.795Z,6.33
2018-06-10T09:07:16.687Z,7.47
2018-06-10T09:09:45.587Z,7.33
2018-06-10T09:12:14.476Z,8.77
2018-06-10T09:14:43.111Z,7.13
2018-06-10T09:17:12.224Z,7.80
2018-06-10T09:19:41.144Z,7.73
2018-06-10T09:22:10.030Z,7.17
2018-06-10T09:24:38.926Z,7.67
2018-06-10T09:27:07.856Z,8.50
2018-06-10T09:29:36.725Z,7.77
2018-06-10T09:32:05.648Z,8.37
2018-06-10T09:34:34.489Z,7.73
2018-06-10T09:37:03.345Z,8.20
2018-06-10T09:39:32.278Z,8.37
2018-06-10T09:42:01.246Z,7.97
2018-06-10T09:44:30.456Z,7.60
2018-06-10T09:46:59.335Z,8.60
2018-06-10T09:49:28.226Z,8.27
2018-06-10T09:51:57.174Z,7.73
2018-06-10T09:54:26.060Z,8.83
2018-06-10T09:56:55.327Z,8.70
2018-06-10T09:59:24.390Z,7.77
2018-06-10T10:01:53.289Z,6.97
2018-06-10T10:04:22.242Z,6.20
2018-06-10T10:06:51.090Z,5.70
2018-06-10T10:09:20.091Z,5.87
2018-06-10T10:11:49.624Z,5.73
2018-06-10T10:14:18.692Z,5.97
2018-06-10T10:16:47.631Z,6.30
2018-06-10T10:19:16.608Z,7.00
2018-06-10T10:21:45.578Z,6.87
2018-06-10T10:24:14.538Z,6.17
2018-06-10T10:26:43.561Z,6.43
2018-06-10T10:29:12.522Z,5.97
2018-06-10T10:31:41.442Z,6.77
2018-06-10T10:34:10.325Z,6.00
2018-06-10T10:36:39.281Z,6.93
2018-06-10T10:39:08.537Z,6.00
2018-06-10T10:41:37.461Z,6.10
2018-06-10T10:44:06.408Z,5.50
2018-06-10T10:46:35.377Z,6.00
2018-06-10T10:49:04.281Z,5.30
2018-06-10T10:51:33.171Z,5.63
2018-06-10T10:54:02.141Z,5.23
2018-06-10T10:56:31.124Z,5.50
2018-06-10T10:59:00.137Z,5.37
2018-06-10T11:01:29.034Z,4.90
2018-06-10T11:03:58.063Z,4.67
2018-06-10T11:06:26.936Z,4.73
2018-06-10T11:08:55.843Z,5.13
2018-06-10T11:11:24.790Z,5.20
2018-06-10T11:13:53.788Z,5.30
2018-06-10T11:16:22.791Z,5.03
2018-06-10T11:18:51.726Z,4.80
2018-06-10T11:21:20.769Z,5.33
2018-06-10T11:23:49.924Z,5.83
2018-06-10T11:26:18.822Z,5.63
2018-06-10T11:28:48.242Z,5.30
2018-06-10T11:31:17.210Z,5.90
2018-06-10T11:33:45.902Z,5.60
2018-06-10T11:36:14.824Z,5.47
2018-06-10T11:38:43.756Z,5.53
2018-06-10T11:41:12.706Z,5.13
2018-06-10T11:43:41.681Z,6.70
2018-06-10T11:46:10.517Z,6.50
2018-06-10T11:48:39.429Z,5.47
2018-06-10T11:51:08.342Z,5.80
2018-06-10T11:53:37.300Z,5.90
2018-06-10T11:56:06.210Z,5.40
2018-06-10T11:58:34.807Z,5.83
2018-06-10T12:01:03.782Z,5.10
2018-06-10T12:03:32.748Z,6.27
2018-06-10T12:06:01.686Z,5.97
2018-06-10T12:08:30.586Z,5.83
2018-06-10T12:10:59.436Z,5.60
2018-06-10T12:13:28.426Z,5.77
2018-06-10T12:15:57.356Z,6.00
2018-06-10T12:18:26.281Z,5.10
2018-06-10T12:20:55.247Z,6.40
2018-06-10T12:23:23.829Z,6.33
2018-06-10T12:25:52.806Z,5.57
2018-06-10T12:28:21.782Z,6.00
2018-06-10T12:30:50.734Z,5.47
2018-06-10T12:33:20.450Z,5.47
2018-06-10T12:35:49.362Z,5.30
2018-06-10T12:38:18.261Z,6.13
2018-06-10T12:40:47.133Z,5.60
2018-06-10T12:43:16.105Z,5.67
2018-06-10T12:45:44.960Z,4.33
2018-06-10T12:48:13.879Z,4.53
2018-06-10T12:50:42.773Z,4.63
2018-06-10T12:53:11.670Z,4.43
2018-06-10T12:55:40.608Z,4.03
2018-06-10T12:58:09.492Z,4.20
2018-06-10T13:00:38.474Z,3.90
2018-06-10T13:03:07.418Z,4.50
2018-06-10T13:05:36.981Z,4.20
2018-06-10T13:08:06.252Z,5.10
2018-06-10T13:10:35.109Z,4.90
2018-06-10T13:13:04.082Z,4.73
2018-06-10T13:15:33.009Z,5.07
2018-06-10T13:18:01.851Z,5.37
2018-06-10T13:20:31.769Z,4.20
2018-06-10T13:23:00.629Z,5.03
2018-06-10T13:25:29.488Z,4.90
2018-06-10T13:27:58.465Z,5.00
2018-06-10T13:30:27.352Z,5.33
2018-06-10T13:32:56.293Z,4.90
2018-06-10T13:35:25.154Z,5.87
2018-06-10T13:37:54.009Z,5.70
2018-06-10T13:40:22.950Z,5.03
2018-06-10T13:42:51.820Z,5.30
2018-06-10T13:45:20.680Z,6.07
2018-06-10T13:47:49.584Z,5.07
2018-06-10T13:50:18.479Z,5.30
2018-06-10T13:52:47.435Z,4.73
2018-06-10T13:55:16.536Z,5.27
2018-06-10T13:57:45.453Z,4.87
2018-06-10T14:00:14.388Z,5.17
2018-06-10T14:02:43.325Z,5.30
2018-06-10T14:05:12.245Z,5.17
2018-06-10T14:07:41.334Z,5.77
2018-06-10T14:10:10.393Z,5.47
2018-06-10T14:12:39.420Z,5.47
2018-06-10T14:15:08.377Z,5.37
2018-06-10T14:17:37.434Z,5.60
2018-06-10T14:20:06.353Z,4.93
2018-06-10T14:22:34.918Z,5.80
2018-06-10T14:25:03.836Z,6.27
2018-06-10T14:27:32.895Z,5.90
2018-06-10T14:30:01.929Z,5.03
2018-06-10T14:32:30.895Z,4.60
2018-06-10T14:34:59.814Z,5.53
2018-06-10T14:37:28.802Z,5.83
2018-06-10T14:39:57.811Z,5.80
2018-06-10T14:42:26.709Z,6.43
2018-06-10T14:44:55.574Z,5.90
2018-06-10T14:47:24.513Z,5.93
2018-06-10T14:49:53.376Z,5.70
2018-06-10T14:52:22.286Z,6.23
2018-06-10T14:54:51.265Z,6.57
2018-06-10T14:57:20.853Z,5.80
2018-06-10T14:59:49.834Z,5.60
2018-06-10T15:02:19.189Z,5.30
2018-06-10T15:04:48.059Z,6.33
2018-06-10T15:07:16.979Z,5.67
2018-06-10T15:09:45.837Z,5.17
2018-06-10T15:12:14.848Z,6.13
2018-06-10T15:14:44.279Z,6.63
2018-06-10T15:17:13.226Z,6.30
2018-06-10T15:19:42.097Z,6.47
2018-06-10T15:22:10.978Z,6.30
2018-06-10T15:24:39.839Z,5.60
2018-06-10T15:27:08.704Z,6.47
2018-06-10T15:29:37.595Z,5.87
2018-06-10T15:32:06.624Z,5.83
2018-06-10T15:34:35.663Z,5.90
2018-06-10T15:37:04.610Z,6.53
2018-06-10T15:39:33.558Z,5.97
2018-06-10T15:42:02.693Z,5.73
2018-06-10T15:44:31.576Z,5.80
2018-06-10T15:47:00.559Z,6.23
2018-06-10T15:49:29.457Z,5.20
2018-06-10T15:51:58.362Z,6.07
2018-06-10T15:54:27.238Z,5.60
2018-06-10T15:56:56.186Z,5.80
2018-06-10T15:59:25.148Z,5.17
2018-06-10T16:01:54.209Z,6.00
2018-06-10T16:04:23.126Z,5.53
2018-06-10T16:06:52.061Z,5.40
2018-06-10T16:09:21.086Z,6.07
2018-06-10T16:11:50.481Z,5.87
2018-06-10T16:14:19.356Z,5.43
2018-06-10T16:16:48.293Z,5.57
2018-06-10T16:19:17.364Z,5.10
2018-06-10T16:21:46.328Z,5.03
2018-06-10T16:24:15.250Z,5.57
2018-06-10T16:26:44.179Z,5.60
2018-06-10T16:29:13.596Z,5.00
2018-06-10T16:31:42.621Z,5.10
2018-06-10T16:34:11.547Z,5.17
2018-06-10T16:36:40.452Z,5.57
2018-06-10T16:39:09.870Z,5.23
2018-06-10T16:41:38.773Z,5.37
2018-06-10T16:44:07.657Z,5.10
2018-06-10T16:46:36.596Z,5.43
2018-06-10T16:49:05.980Z,5.43
2018-06-10T16:51:34.920Z,5.20
2018-06-10T16:54:04.218Z,5.27
2018-06-10T16:56:33.097Z,5.60
2018-06-10T16:59:01.992Z,5.30
2018-06-10T17:01:30.936Z,4.57
2018-06-10T17:03:59.884Z,5.07
2018-06-10T17:06:29.037Z,4.93
2018-06-10T17:08:57.567Z,4.53
2018-06-10T17:11:26.456Z,4.57
2018-06-10T17:13:55.334Z,4.83
2018-06-10T17:16:25.123Z,5.17
2018-06-10T17:18:54.151Z,4.73
2018-06-10T17:21:23.052Z,5.27
2018-06-10T17:23:52.131Z,4.37
2018-06-10T17:26:21.098Z,4.63
2018-06-10T17:28:50.082Z,5.10
2018-06-10T17:31:18.943Z,4.87
2018-06-10T17:33:47.937Z,4.60
2018-06-10T17:36:16.806Z,5.33
2018-06-10T17:38:45.665Z,4.73
2018-06-10T17:41:14.552Z,4.40
2018-06-10T17:43:43.520Z,4.77
2018-06-10T17:46:12.475Z,4.70
2018-06-10T17:48:41.399Z,4.57
2018-06-10T17:51:10.254Z,4.33
2018-06-10T17:53:39.182Z,4.20
2018-06-10T17:56:08.006Z,3.50
2018-06-10T17:58:36.933Z,4.27
2018-06-10T18:01:05.853Z,3.80
2018-06-10T18:03:34.822Z,3.77
2018-06-10T18:06:03.873Z,3.80
2018-06-10T18:08:32.780Z,3.87
2018-06-10T18:11:01.689Z,4.10
2018-06-10T18:13:30.635Z,4.30
2018-06-10T18:15:59.573Z,4.10
2018-06-10T18:18:29.223Z,4.77
2018-06-10T18:20:58.298Z,3.87
2018-06-10T18:23:27.378Z,4.57
2018-06-10T18:25:56.002Z,3.97
2018-06-10T18:28:24.944Z,3.60
2018-06-10T18:30:53.865Z,3.60
2018-06-10T18:33:22.810Z,4.33
2018-06-10T18:35:51.693Z,4.03
2018-06-10T18:38:20.706Z,4.70
2018-06-10T18:40:50.320Z,4.23
2018-06-10T18:43:20.175Z,4.17
2018-06-10T18:45:49.071Z,4.50
2018-06-10T18:48:17.985Z,4.43
2018-06-10T18:50:46.912Z,3.80
2018-06-10T18:53:15.900Z,4.60
2018-06-10T18:55:44.931Z,4.37
2018-06-10T18:58:13.832Z,4.57
2018-06-10T19:00:42.779Z,3.90
2018-06-10T19:03:11.694Z,4.37
2018-06-10T19:05:40.805Z,3.90
2018-06-10T19:08:09.708Z,4.27
2018-06-10T19:10:38.627Z,4.47
2018-06-10T19:13:07.594Z,3.77
2018-06-10T19:15:36.523Z,4.10
2018-06-10T19:18:05.675Z,4.10
2018-06-10T19:20:34.629Z,3.57
2018-06-10T19:23:03.563Z,4.00
2018-06-10T19:25:32.482Z,4.10
2018-06-10T19:28:01.570Z,4.23
2018-06-10T19:30:30.529Z,3.90
2018-06-10T19:32:59.393Z,4.57
2018-06-10T19:35:28.389Z,4.13
2018-06-10T19:37:57.307Z,4.30
2018-06-10T19:40:26.317Z,3.80
2018-06-10T19:42:55.249Z,4.00
2018-06-10T19:45:24.226Z,4.63
2018-06-10T19:47:53.165Z,4.60
2018-06-10T19:50:22.269Z,5.07
2018-06-10T19:52:51.158Z,4.50
2018-06-10T19:55:20.181Z,5.30
2018-06-10T19:57:49.186Z,4.23
2018-06-10T20:00:18.278Z,4.87
2018-06-10T20:02:47.202Z,4.77
2018-06-10T20:05:16.062Z,5.13
2018-06-10T20:07:45.063Z,4.80
2018-06-10T20:10:13.945Z,4.70
2018-06-10T20:12:42.814Z,5.40
2018-06-10T20:15:11.726Z,5.53
2018-06-10T20:17:40.749Z,5.17
2018-06-10T20:20:09.405Z,5.77
2018-06-10T20:22:38.367Z,5.50
2018-06-10T20:25:07.497Z,5.27
2018-06-10T20:27:36.513Z,4.67
2018-06-10T20:30:05.731Z,5.57
2018-06-10T20:32:34.781Z,5.70
2018-06-10T20:35:03.739Z,5.50
2018-06-10T20:37:32.717Z,4.90
2018-06-10T20:40:01.399Z,5.87
2018-06-10T20:42:30.339Z,4.97
2018-06-10T20:44:59.346Z,5.50
2018-06-10T20:47:28.260Z,4.97
2018-06-10T20:49:57.541Z,5.40
2018-06-10T20:52:26.457Z,5.30
2018-06-10T20:54:55.341Z,5.53
2018-06-10T20:57:24.376Z,5.33
2018-06-10T20:59:53.374Z,5.60
2018-06-10T21:02:22.418Z,5.93
2018-06-10T21:04:51.274Z,5.77
2018-06-10T21:07:20.465Z,6.37
2018-06-10T21:09:49.571Z,5.90
2018-06-10T21:12:21.705Z,5.90
2018-06-10T21:14:50.628Z,6.27
2018-06-10T21:17:19.548Z,5.77
2018-06-10T21:19:48.450Z,5.03
2018-06-10T21:22:17.051Z,5.40
2018-06-10T21:24:45.891Z,5.63
2018-06-10T21:27:14.982Z,5.83
2018-06-10T21:29:44.724Z,5.53
2018-06-10T21:32:13.637Z,6.00
2018-06-10T21:34:42.701Z,5.80
2018-06-10T21:37:11.649Z,5.87
2018-06-10T21:39:40.612Z,5.87
2018-06-10T21:42:09.528Z,6.33
2018-06-10T21:44:38.490Z,6.63
2018-06-10T21:47:07.666Z,6.30
2018-06-10T21:49:36.556Z,6.53
2018-06-10T21:52:05.420Z,6.33
2018-06-10T21:54:34.313Z,6.13
2018-06-10T21:57:03.190Z,6.63
2018-06-10T21:59:32.220Z,7.07
2018-06-10T22:02:01.197Z,6.43
2018-06-10T22:04:30.147Z,6.43
2018-06-10T22:06:59.200Z,5.97
2018-06-10T22:09:28.098Z,6.73
2018-06-10T22:11:57.061Z,6.53
2018-06-10T22:14:25.661Z,6.00
2018-06-10T22:16:54.669Z,6.57
2018-06-10T22:19:23.609Z,6.13
2018-06-10T22:21:53.218Z,6.33
2018-06-10T22:24:22.414Z,6.57
2018-06-10T22:26:51.415Z,5.90
2018-06-10T22:29:20.294Z,6.20
2018-06-10T22:31:49.322Z,6.60
2018-06-10T22:34:18.433Z,6.37
2018-06-10T22:36:47.250Z,6.13
2018-06-10T22:39:16.361Z,6.53
2018-06-10T22:41:45.360Z,6.50
2018-06-10T22:44:14.357Z,6.40
2018-06-10T22:46:43.352Z,6.20
2018-06-10T22:49:12.286Z,5.70
2018-06-10T22:51:41.285Z,6.20
2018-06-10T22:54:37.353Z,5.93
2018-06-10T22:57:06.684Z,5.63
2018-06-10T22:59:35.607Z,6.13
2018-06-10T23:02:05.358Z,5.60
2018-06-10T23:04:34.358Z,5.47
2018-06-10T23:07:03.385Z,4.90
2018-06-10T23:09:32.438Z,5.03
2018-06-10T23:12:02.014Z,4.97
2018-06-10T23:14:31.029Z,5.30
2018-06-10T23:17:00.085Z,5.40
2018-06-10T23:19:30.045Z,5.23
2018-06-10T23:21:58.930Z,5.33
2018-06-10T23:24:28.593Z,5.40
2018-06-10T23:26:57.552Z,5.13
2018-06-10T23:29:26.465Z,5.20
2018-06-10T23:31:55.324Z,5.20
2018-06-10T23:34:24.287Z,5.60
2018-06-10T23:36:53.197Z,5.10
2018-06-10T23:39:22.091Z,5.47
2018-06-10T23:41:51.024Z,4.93
2018-06-10T23:44:19.970Z,5.33
2018-06-10T23:46:49.067Z,5.10
2018-06-10T23:49:18.735Z,5.50
2018-06-10T23:51:48.204Z,5.57
2018-06-10T23:54:17.094Z,5.60
2018-06-10T23:56:46.038Z,5.60
2018-06-10T23:59:14.991Z,5.33
